createdAt,value
2022-10-22T00:02:20.760Z,4.78
2022-10-22T00:05:37.435Z,5.40
2022-10-22T00:08:53.253Z,4.40
2022-10-22T00:12:09.953Z,4.85
2022-10-22T00:15:26.326Z,4.13
2022-10-22T00:18:43.491Z,4.50
2022-10-22T00:21:59.667Z,5.25
2022-10-22T00:25:15.561Z,5.05
2022-10-22T00:28:31.916Z,4.70
2022-10-22T00:31:48.343Z,4.15
2022-10-22T00:35:04.716Z,4.78
2022-10-22T00:38:21.576Z,4.18
2022-10-22T00:41:37.949Z,4.55
2022-10-22T00:44:54.762Z,4.22
2022-10-22T00:48:11.360Z,5.05
2022-10-22T00:51:27.426Z,3.95
2022-10-22T00:54:43.666Z,4.43
2022-10-22T00:57:59.747Z,4.80
2022-10-22T01:01:16.175Z,4.63
2022-10-22T01:04:32.870Z,4.80
2022-10-22T01:07:48.926Z,4.55
2022-10-22T01:11:04.890Z,4.75
2022-10-22T01:14:21.131Z,4.18
2022-10-22T01:17:37.711Z,3.40
2022-10-22T01:20:54.313Z,4.10
2022-10-22T01:24:11.125Z,4.28
2022-10-22T01:27:27.251Z,5.00
2022-10-22T01:30:43.656Z,4.07
2022-10-22T01:33:59.620Z,5.07
2022-10-22T01:37:15.989Z,4.28
2022-10-22T01:40:33.133Z,5.10
2022-10-22T01:43:49.525Z,5.43
2022-10-22T01:47:05.676Z,4.07
2022-10-22T01:50:22.172Z,4.90
2022-10-22T01:53:38.589Z,4.70
2022-10-22T01:56:54.997Z,4.68
2022-10-22T02:00:11.437Z,5.72
2022-10-22T02:03:27.452Z,4.57
2022-10-22T02:06:43.541Z,4.20
2022-10-22T02:10:00.677Z,4.25
2022-10-22T02:13:16.811Z,5.30
2022-10-22T02:16:32.765Z,4.40
2022-10-22T02:19:48.928Z,5.03
2022-10-22T02:23:05.194Z,5.18
2022-10-22T02:26:21.192Z,4.47
2022-10-22T02:29:37.593Z,4.25
2022-10-22T02:32:53.834Z,4.82
2022-10-22T02:36:10.300Z,4.57
2022-10-22T02:39:26.284Z,4.25
2022-10-22T02:42:42.780Z,4.30
2022-10-22T02:45:59.818Z,4.00
2022-10-22T02:49:15.934Z,4.15
2022-10-22T02:52:31.990Z,3.75
2022-10-22T02:55:48.417Z,3.90
2022-10-22T02:59:04.712Z,4.53
2022-10-22T03:02:20.910Z,4.50
2022-10-22T03:05:36.905Z,5.00
2022-10-22T03:08:54.533Z,4.25
2022-10-22T03:12:11.134Z,5.15
2022-10-22T03:18:43.386Z,5.00
2022-10-22T03:22:00.168Z,4.57
2022-10-22T03:25:16.639Z,4.63
2022-10-22T03:28:32.738Z,4.38
2022-10-22T03:31:49.064Z,5.88
2022-10-22T03:35:05.609Z,5.47
2022-10-22T03:38:21.923Z,4.93
2022-10-22T03:41:37.866Z,4.95
2022-10-22T03:44:54.001Z,5.82
2022-10-22T03:48:09.930Z,4.10
2022-10-22T03:51:26.090Z,6.00
2022-10-22T03:54:43.483Z,5.20
2022-10-22T03:57:59.407Z,4.97
2022-10-22T04:01:15.898Z,4.50
2022-10-22T04:04:32.247Z,5.68
2022-10-22T04:07:49.071Z,4.82
2022-10-22T04:11:05.275Z,4.70
2022-10-22T04:14:21.338Z,4.75
2022-10-22T04:17:37.461Z,4.70
2022-10-22T04:20:53.940Z,5.13
2022-10-22T04:24:10.562Z,6.00
2022-10-22T04:27:26.621Z,6.53
2022-10-22T04:30:44.317Z,4.35
2022-10-22T04:34:00.807Z,5.28
2022-10-22T04:37:16.977Z,5.10
2022-10-22T04:40:33.920Z,4.80
2022-10-22T04:43:50.176Z,5.10
2022-10-22T04:47:06.843Z,4.80
2022-10-22T04:50:23.228Z,5.40
2022-10-22T04:53:39.893Z,4.95
2022-10-22T04:56:56.066Z,4.63
2022-10-22T05:00:12.148Z,4.82
2022-10-22T05:03:28.090Z,4.78
2022-10-22T05:06:44.037Z,4.78
2022-10-22T05:10:00.603Z,4.13
2022-10-22T05:13:16.868Z,5.70
2022-10-22T05:16:33.068Z,4.28
2022-10-22T05:19:49.238Z,3.92
2022-10-22T05:23:05.151Z,5.10
2022-10-22T05:26:21.425Z,4.80
2022-10-22T05:29:38.326Z,4.60
2022-10-22T05:32:55.204Z,4.78
2022-10-22T05:36:11.251Z,5.18
2022-10-22T05:39:27.741Z,3.67
2022-10-22T05:42:44.074Z,4.03
2022-10-22T05:46:00.333Z,3.75
2022-10-22T05:49:16.787Z,4.75
2022-10-22T05:52:32.858Z,3.88
2022-10-22T05:55:49.068Z,4.07
2022-10-22T05:59:05.953Z,4.53
2022-10-22T06:02:22.401Z,4.93
2022-10-22T06:05:38.927Z,4.07
2022-10-22T06:08:55.429Z,4.07
2022-10-22T06:12:12.164Z,3.92
2022-10-22T06:15:30.079Z,4.25
2022-10-22T06:18:46.559Z,4.95
2022-10-22T06:22:03.083Z,4.38
2022-10-22T06:25:20.048Z,4.22
2022-10-22T06:28:35.968Z,4.40
2022-10-22T06:31:52.133Z,3.78
2022-10-22T06:35:08.286Z,4.25
2022-10-22T06:38:24.209Z,3.55
2022-10-22T06:41:40.711Z,4.20
2022-10-22T06:44:57.173Z,3.90
2022-10-22T06:48:13.434Z,3.60
2022-10-22T06:51:29.932Z,3.63
2022-10-22T06:54:46.255Z,4.28
2022-10-22T06:58:02.920Z,3.92
2022-10-22T07:01:19.246Z,3.13
2022-10-22T07:04:37.090Z,4.50
2022-10-22T07:07:53.390Z,3.25
2022-10-22T07:11:09.942Z,4.18
2022-10-22T07:14:26.047Z,3.30
2022-10-22T07:17:42.134Z,3.85
2022-10-22T07:20:58.681Z,3.03
2022-10-22T07:24:14.739Z,3.53
2022-10-22T07:27:30.879Z,3.75
2022-10-22T07:30:47.269Z,3.88
2022-10-22T07:34:03.519Z,3.70
2022-10-22T07:37:19.576Z,3.53
2022-10-22T07:40:35.879Z,3.63
2022-10-22T07:43:52.613Z,3.95
2022-10-22T07:47:08.991Z,3.67
2022-10-22T07:50:25.633Z,3.20
2022-10-22T07:53:42.278Z,3.13
2022-10-22T07:56:58.317Z,3.22
2022-10-22T08:00:14.543Z,4.07
2022-10-22T08:03:30.563Z,3.05
2022-10-22T08:06:47.379Z,3.15
2022-10-22T08:10:04.863Z,2.92
2022-10-22T08:13:21.354Z,2.63
2022-10-22T08:16:37.641Z,3.97
2022-10-22T08:19:54.534Z,2.97
2022-10-22T08:23:10.925Z,4.03
2022-10-22T08:26:27.054Z,3.45
2022-10-22T08:29:43.449Z,2.25
2022-10-22T08:32:59.158Z,2.35
2022-10-22T08:36:15.360Z,2.97
2022-10-22T08:39:31.364Z,2.70
2022-10-22T08:42:47.529Z,1.88
2022-10-22T08:46:03.488Z,1.63
2022-10-22T08:49:19.519Z,2.72
2022-10-22T08:52:35.604Z,2.13
2022-10-22T08:55:51.721Z,2.55
2022-10-22T08:59:07.812Z,2.13
2022-10-22T09:02:23.887Z,1.95
2022-10-22T09:05:40.255Z,2.33
2022-10-22T09:08:57.608Z,2.22
2022-10-22T09:12:19.192Z,2.72
2022-10-22T09:15:37.991Z,3.38
2022-10-22T09:18:54.543Z,3.22
2022-10-22T09:22:10.946Z,2.08
2022-10-22T09:25:29.327Z,3.50
2022-10-22T09:28:46.030Z,1.95
2022-10-22T09:32:02.117Z,1.95
2022-10-22T09:35:18.538Z,2.20
2022-10-22T09:38:34.618Z,1.75
2022-10-22T09:41:50.935Z,1.80
2022-10-22T09:45:06.844Z,3.55
2022-10-22T09:48:23.082Z,2.65
2022-10-22T09:51:39.071Z,2.92
2022-10-22T09:54:55.813Z,2.67
2022-10-22T09:58:11.846Z,2.83
2022-10-22T10:01:27.769Z,3.00
2022-10-22T10:04:44.409Z,2.50
2022-10-22T10:08:00.246Z,2.05
2022-10-22T10:11:16.567Z,2.22
2022-10-22T10:14:32.798Z,3.28
2022-10-22T10:17:49.203Z,3.55
2022-10-22T10:21:05.836Z,1.95
2022-10-22T10:24:22.180Z,1.85
2022-10-22T10:27:38.946Z,2.78
2022-10-22T10:30:55.086Z,2.55
2022-10-22T10:34:12.154Z,3.03
2022-10-22T10:37:28.464Z,3.28
2022-10-22T10:40:44.719Z,3.55
2022-10-22T10:44:01.494Z,2.65
2022-10-22T10:47:17.799Z,2.13
2022-10-22T10:50:34.348Z,2.75
2022-10-22T10:53:50.349Z,3.58
2022-10-22T10:57:06.593Z,1.92
2022-10-22T11:00:22.650Z,3.63
2022-10-22T11:03:39.282Z,2.60
2022-10-22T11:07:05.892Z,3.88
2022-10-22T11:10:31.467Z,2.42
2022-10-22T11:13:47.702Z,2.17
2022-10-22T11:17:04.184Z,2.13
2022-10-22T11:20:20.645Z,2.47
2022-10-22T11:23:36.664Z,2.28
2022-10-22T11:26:52.605Z,3.47
2022-10-22T11:30:08.890Z,3.38
2022-10-22T11:33:25.340Z,2.22
2022-10-22T11:36:41.760Z,1.85
2022-10-22T11:39:57.791Z,2.42
2022-10-22T11:43:13.768Z,2.25
2022-10-22T11:46:29.449Z,2.65
2022-10-22T11:49:46.542Z,2.25
2022-10-22T11:53:03.118Z,1.80
2022-10-22T11:56:19.459Z,1.67
2022-10-22T11:59:36.092Z,2.72
2022-10-22T12:02:51.997Z,2.03
2022-10-22T12:06:08.141Z,2.15
2022-10-22T12:09:24.181Z,2.45
2022-10-22T12:12:40.333Z,2.10
2022-10-22T12:15:56.658Z,2.28
2022-10-22T12:19:12.636Z,2.67
2022-10-22T12:22:28.878Z,2.20
2022-10-22T12:25:44.965Z,2.40
2022-10-22T12:29:01.505Z,2.67
2022-10-22T12:32:17.365Z,3.22
2022-10-22T12:35:33.662Z,2.00
2022-10-22T12:38:49.938Z,2.88
2022-10-22T12:42:06.333Z,2.25
2022-10-22T12:45:22.481Z,2.67
2022-10-22T12:48:39.205Z,2.80
2022-10-22T12:51:55.633Z,2.35
2022-10-22T12:55:12.212Z,2.45
2022-10-22T12:58:28.870Z,2.10
2022-10-22T13:01:44.676Z,2.38
2022-10-22T13:05:02.817Z,3.03
2022-10-22T13:08:19.578Z,2.85
2022-10-22T13:11:35.588Z,2.33
2022-10-22T13:14:52.007Z,3.15
2022-10-22T13:18:07.835Z,2.75
2022-10-22T13:21:24.110Z,2.55
2022-10-22T13:24:40.019Z,2.28
2022-10-22T13:27:56.122Z,2.15
2022-10-22T13:31:11.984Z,2.38
2022-10-22T13:34:29.070Z,2.20
2022-10-22T13:37:45.493Z,3.22
2022-10-22T13:41:03.425Z,4.47
2022-10-22T13:44:19.829Z,2.42
2022-10-22T13:47:36.370Z,2.58
2022-10-22T13:50:52.349Z,3.03
2022-10-22T13:54:08.872Z,1.95
2022-10-22T13:57:25.102Z,2.22
2022-10-22T14:00:42.722Z,2.65
2022-10-22T14:03:58.910Z,2.38
2022-10-22T14:07:15.408Z,1.98
2022-10-22T14:10:31.844Z,2.30
2022-10-22T14:13:48.220Z,1.73
2022-10-22T14:17:04.561Z,4.30
2022-10-22T14:20:20.785Z,2.20
2022-10-22T14:23:37.097Z,2.35
2022-10-22T14:26:53.741Z,2.97
2022-10-22T14:30:10.203Z,2.25
2022-10-22T14:33:29.036Z,2.78
2022-10-22T14:36:47.940Z,1.90
2022-10-22T14:40:04.126Z,2.97
2022-10-22T14:43:20.292Z,2.20
2022-10-22T14:46:36.335Z,2.17
2022-10-22T14:49:52.401Z,3.38
2022-10-22T14:53:07.972Z,2.53
2022-10-22T14:56:23.918Z,2.15
2022-10-22T14:59:40.253Z,2.65
2022-10-22T15:02:57.516Z,3.42
2022-10-22T15:06:14.928Z,3.55
2022-10-22T15:09:30.968Z,3.15
2022-10-22T15:12:46.874Z,3.63
2022-10-22T15:16:03.121Z,3.20
2022-10-22T15:19:20.119Z,2.63
2022-10-22T15:22:36.382Z,3.13
2022-10-22T15:25:53.206Z,2.53
2022-10-22T15:29:09.203Z,2.88
2022-10-22T15:32:25.496Z,3.72
2022-10-22T15:35:41.863Z,2.67
2022-10-22T15:38:57.959Z,3.90
2022-10-22T15:42:14.227Z,3.38
2022-10-22T15:45:29.975Z,3.17
2022-10-22T15:48:46.357Z,3.88
2022-10-22T15:52:02.813Z,3.30
2022-10-22T15:55:19.189Z,4.55
2022-10-22T15:58:35.945Z,4.78
2022-10-22T16:01:51.929Z,3.83
2022-10-22T16:05:07.985Z,2.67
2022-10-22T16:08:23.848Z,3.15
2022-10-22T16:11:40.355Z,3.45
2022-10-22T16:14:57.223Z,3.47
2022-10-22T16:18:13.906Z,4.55
2022-10-22T16:21:30.414Z,3.47
2022-10-22T16:24:47.515Z,4.60
2022-10-22T16:28:03.799Z,4.10
2022-10-22T16:31:19.694Z,4.32
2022-10-22T16:34:38.126Z,3.90
2022-10-22T16:37:54.075Z,4.38
2022-10-22T16:41:10.044Z,4.03
2022-10-22T16:44:26.183Z,3.92
2022-10-22T16:47:42.741Z,3.70
2022-10-22T16:51:00.619Z,4.03
2022-10-22T16:54:21.159Z,3.60
2022-10-22T16:57:37.104Z,3.90
2022-10-22T17:00:53.672Z,5.13
2022-10-22T17:04:10.114Z,3.90
2022-10-22T17:07:26.822Z,3.88
2022-10-22T17:10:42.826Z,5.82
2022-10-22T17:13:59.407Z,5.22
2022-10-22T17:17:15.811Z,5.90
2022-10-22T17:20:33.564Z,4.45
2022-10-22T17:23:49.669Z,4.72
2022-10-22T17:27:05.790Z,5.25
2022-10-22T17:30:25.061Z,5.40
2022-10-22T17:33:45.815Z,4.63
2022-10-22T17:37:01.985Z,5.10
2022-10-22T17:40:18.120Z,4.72
2022-10-22T17:43:34.438Z,5.15
2022-10-22T17:46:50.996Z,4.78
2022-10-22T17:50:07.003Z,4.43
2022-10-22T17:53:23.376Z,5.25
2022-10-22T17:56:39.658Z,5.25
2022-10-22T17:59:55.629Z,4.40
2022-10-22T18:03:12.013Z,4.50
2022-10-22T18:06:28.339Z,4.88
2022-10-22T18:09:46.542Z,5.18
2022-10-22T18:13:02.624Z,4.47
2022-10-22T18:16:18.816Z,4.55
2022-10-22T18:19:36.008Z,4.40
2022-10-22T18:22:52.404Z,4.25
2022-10-22T18:26:08.473Z,4.57
2022-10-22T18:29:25.657Z,4.90
2022-10-22T18:32:42.029Z,5.43
2022-10-22T18:36:01.095Z,5.03
2022-10-22T18:39:17.535Z,4.28
2022-10-22T18:42:34.633Z,5.05
2022-10-22T18:45:53.884Z,4.53
2022-10-22T18:49:10.365Z,4.95
2022-10-22T18:52:26.237Z,6.22
2022-10-22T18:55:43.660Z,5.45
2022-10-22T18:58:59.826Z,5.43
2022-10-22T19:02:15.820Z,6.43
2022-10-22T19:05:33.105Z,6.05
2022-10-22T19:08:51.290Z,4.78
2022-10-22T19:12:07.788Z,5.93
2022-10-22T19:15:24.983Z,6.53
2022-10-22T19:18:42.488Z,5.57
2022-10-22T19:21:58.701Z,6.03
2022-10-22T19:25:14.860Z,5.40
2022-10-22T19:28:31.323Z,5.82
2022-10-22T19:31:47.475Z,6.13
2022-10-22T19:35:03.838Z,6.63
2022-10-22T19:38:20.233Z,6.68
2022-10-22T19:41:36.566Z,5.22
2022-10-22T19:44:52.535Z,5.65
2022-10-22T19:48:08.579Z,6.13
2022-10-22T19:51:24.654Z,5.88
2022-10-22T19:54:40.798Z,6.82
2022-10-22T19:57:57.452Z,6.35
2022-10-22T20:01:13.499Z,6.55
2022-10-22T20:04:30.198Z,6.55
2022-10-22T20:07:46.230Z,4.90
2022-10-22T20:11:02.572Z,5.75
2022-10-22T20:14:19.738Z,6.28
2022-10-22T20:17:35.779Z,5.35
2022-10-22T20:20:52.113Z,5.70
2022-10-22T20:24:08.192Z,6.18
2022-10-22T20:27:24.300Z,6.40
2022-10-22T20:30:40.376Z,5.45
2022-10-22T20:33:56.581Z,6.32
2022-10-22T20:37:13.020Z,6.05
2022-10-22T20:40:29.208Z,6.38
2022-10-22T20:43:46.870Z,5.88
2022-10-22T20:47:02.879Z,6.30
2022-10-22T20:50:19.276Z,5.25
2022-10-22T20:53:35.829Z,5.55
2022-10-22T20:56:51.711Z,5.82
2022-10-22T21:00:07.720Z,5.63
2022-10-22T21:03:23.759Z,5.80
2022-10-22T21:06:40.137Z,5.78
2022-10-22T21:09:57.429Z,6.45
2022-10-22T21:13:13.775Z,6.45
2022-10-22T21:16:29.814Z,5.72
2022-10-22T21:19:46.923Z,5.70
2022-10-22T21:23:03.382Z,5.40
2022-10-22T21:26:19.216Z,4.95
2022-10-22T21:29:36.319Z,5.50
2022-10-22T21:32:52.604Z,6.13
2022-10-22T21:36:09.296Z,4.72
2022-10-22T21:39:25.910Z,5.07
2022-10-22T21:42:41.692Z,5.80
2022-10-22T21:46:00.179Z,5.63
2022-10-22T21:49:18.052Z,5.45
2022-10-22T21:52:34.336Z,6.47
2022-10-22T21:55:51.485Z,5.07
2022-10-22T21:59:07.860Z,5.60
2022-10-22T22:02:23.898Z,5.40
2022-10-22T22:05:40.371Z,5.38
2022-10-22T22:08:57.936Z,6.00
2022-10-22T22:12:14.424Z,6.80
2022-10-22T22:15:32.497Z,6.45
2022-10-22T22:18:49.521Z,5.68
2022-10-22T22:22:05.817Z,6.15
2022-10-22T22:25:21.911Z,5.20
2022-10-22T22:28:38.003Z,5.35
2022-10-22T22:31:54.707Z,6.38
2022-10-22T22:35:10.986Z,5.28
2022-10-22T22:38:27.420Z,5.18
2022-10-22T22:41:43.719Z,5.50
2022-10-22T22:45:01.312Z,5.13
2022-10-22T22:48:17.516Z,5.35
2022-10-22T22:51:33.477Z,5.10
2022-10-22T22:54:50.486Z,5.15
2022-10-22T22:58:06.412Z,6.03
2022-10-22T23:01:22.552Z,5.90
2022-10-22T23:04:40.091Z,6.53
2022-10-22T23:07:56.084Z,6.65
2022-10-22T23:11:12.537Z,5.28
2022-10-22T23:14:29.277Z,5.30
2022-10-22T23:17:45.701Z,6.68
2022-10-22T23:21:02.083Z,6.18
2022-10-22T23:24:19.153Z,6.07
2022-10-22T23:27:36.057Z,6.05
2022-10-22T23:30:52.083Z,5.72
2022-10-22T23:34:08.291Z,6.07
2022-10-22T23:37:24.844Z,6.35
2022-10-22T23:40:41.870Z,6.43
2022-10-22T23:43:58.134Z,5.40
2022-10-22T23:47:14.232Z,5.70
2022-10-22T23:50:30.581Z,5.43
2022-10-22T23:53:46.691Z,5.95
2022-10-22T23:57:02.907Z,6.32
